Time;durP1;ratioP1;P1;durP2;ratioP2;P2;SDS_P1;SDS_P2;PMS_P1;PMS_P2;Temp;Humidity;BMP_temperature;BMP_pressure;BME280_temperature;BME280_humidity;BME280_pressure;Samples;Min_cycle;Max_cycle;Signal;HPM_P1;HPM_P2
2022/07/27 00:01:08;;;;;;;;;1.00;1.00;;;;;19.24;55.56;101079.00;5058227;28;46152;-78
2022/07/27 00:03:34;;;;;;;;;2.00;2.00;;;;;19.19;55.60;101070.28;5056875;28;45389;-77
2022/07/27 00:05:59;;;;;;;;;3.00;2.75;;;;;19.32;56.00;101089.34;5056483;28;45391;-77
2022/07/27 00:08:24;;;;;;;;;1.00;1.00;;;;;19.25;55.74;101074.50;5056999;28;45504;-76
2022/07/27 00:10:51;;;;;;;;;3.00;3.00;;;;;19.30;56.33;101076.00;5072707;28;46245;-77
2022/07/27 00:13:16;;;;;;;;;3.00;2.00;;;;;19.34;56.43;101084.75;5078132;27;45420;-77
2022/07/27 00:15:42;;;;;;;;;2.25;2.25;;;;;19.30;56.54;101089.41;5067979;28;45415;-77
2022/07/27 00:18:09;;;;;;;;;2.75;2.75;;;;;19.24;57.13;101079.00;5058270;28;45338;-77
2022/07/27 00:20:34;;;;;;;;;4.00;3.00;;;;;19.29;56.95;101082.31;5071783;28;46268;-77
2022/07/27 00:23:00;;;;;;;;;2.00;2.00;;;;;19.26;57.10;101079.78;5077133;28;45475;-78
2022/07/27 00:25:26;;;;;;;;;1.75;1.75;;;;;19.28;57.21;101079.69;5068885;28;45365;-76
2022/07/27 00:27:52;;;;;;;;;3.00;2.00;;;;;19.18;57.19;101073.94;5056786;28;45609;-77
2022/07/27 00:30:18;;;;;;;;;4.00;4.00;;;;;19.27;57.10;101084.19;5066041;28;46350;-76
2022/07/27 00:32:43;;;;;;;;;2.00;2.00;;;;;19.26;57.65;101082.44;5076904;28;45304;-77
2022/07/27 00:35:09;;;;;;;;;2.50;2.50;;;;;19.21;57.71;101079.13;5069581;27;45508;-77
2022/07/27 00:37:34;;;;;;;;;2.75;2.75;;;;;19.09;57.54;101063.66;5058529;28;45451;-77
2022/07/27 00:40:01;;;;;;;;;3.50;3.50;;;;;19.16;57.62;101081.16;5062790;28;46208;-78
2022/07/27 00:42:27;;;;;;;;;2.00;2.00;;;;;19.15;57.94;101079.44;5075303;28;45570;-77
2022/07/27 00:44:53;;;;;;;;;3.75;2.50;;;;;19.13;57.78;101076.84;5073585;28;45473;-77
2022/07/27 00:47:20;;;;;;;;;3.00;3.00;;;;;19.17;58.05;101074.88;5056241;28;45485;-76
2022/07/27 00:49:45;;;;;;;;;1.25;1.25;;;;;19.18;58.20;101079.28;5061274;28;46578;-77
2022/07/27 00:52:12;;;;;;;;;4.00;4.00;;;;;19.15;58.16;101074.94;5077326;28;45455;-77
2022/07/27 00:54:39;;;;;;;;;5.00;2.25;;;;;19.16;58.24;101076.69;5076956;27;45337;-77
2022/07/27 00:57:05;;;;;;;;;4.00;4.00;;;;;19.15;58.27;101068.72;5076406;28;45485;-77
2022/07/27 00:59:30;;;;;;;;;3.00;3.00;;;;;19.12;58.94;101068.88;5073832;27;46507;-75
2022/07/27 01:01:56;;;;;;;;;3.25;2.00;;;;;19.08;58.84;101072.63;5055854;28;45662;-76
2022/07/27 01:04:21;;;;;;;;;3.00;3.00;;;;;19.01;58.94;101058.66;5055860;28;45643;-75
2022/07/27 01:06:47;;;;;;;;;1.50;1.50;;;;;19.00;59.28;101055.09;5056455;28;45538;-76
2022/07/27 01:11:57;;;;;;;;;3.75;2.00;;;;;18.88;59.42;101061.03;5056321;28;45618;-75
2022/07/27 01:14:23;;;;;;;;;3.00;3.00;;;;;18.89;59.78;101059.22;5055806;28;45512;-77
2022/07/27 01:16:50;;;;;;;;;7.00;4.25;;;;;18.83;60.05;101061.22;5067631;28;45350;-77
2022/07/27 01:19:16;;;;;;;;;2.50;2.50;;;;;18.80;60.31;101056.03;5076683;27;45485;-75
2022/07/27 01:21:42;;;;;;;;;3.50;2.50;;;;;18.75;60.30;101058.06;5077288;28;45322;-75
2022/07/27 01:24:08;;;;;;;;;2.25;2.25;;;;;18.78;60.09;101065.06;5076161;27;45422;-75
2022/07/27 01:26:35;;;;;;;;;3.75;3.00;;;;;18.71;60.39;101047.56;5059333;28;45421;-75
2022/07/27 01:29:01;;;;;;;;;4.00;4.00;;;;;18.67;59.82;101040.59;5055517;28;46438;-76
2022/07/27 01:31:27;;;;;;;;;2.50;2.50;;;;;18.73;60.47;101056.38;5055743;28;45520;-78
2022/07/27 01:33:53;;;;;;;;;3.00;3.00;;;;;18.58;60.68;101044.56;5038333;28;45340;-75
2022/07/27 01:36:19;;;;;;;;;2.00;1.00;;;;;18.54;60.99;101046.53;5060751;28;45550;-76
2022/07/27 01:38:44;;;;;;;;;3.25;3.00;;;;;18.45;60.88;101036.25;5058557;28;45446;-77
2022/07/27 01:41:10;;;;;;;;;4.00;4.00;;;;;18.52;61.09;101044.84;5056016;28;45346;-76
2022/07/27 01:43:35;;;;;;;;;1.75;1.00;;;;;18.45;61.19;101054.97;5055405;28;45346;-75
2022/07/27 01:46:01;;;;;;;;;3.25;3.00;;;;;18.48;61.01;101052.16;5062740;28;45552;-77
2022/07/27 01:48:26;;;;;;;;;3.50;3.50;;;;;18.46;61.53;101054.03;5075915;28;46715;-77
2022/07/27 01:50:52;;;;;;;;;3.00;3.00;;;;;18.41;61.35;101050.69;5076414;28;45331;-77
2022/07/27 01:53:22;;;;;;;;;3.00;3.00;;;;;18.24;61.53;101022.91;5077646;27;45287;-77
2022/07/27 01:55:48;;;;;;;;;3.50;3.50;;;;;18.36;61.34;101047.38;5064979;27;45424;-76
2022/07/27 01:58:14;;;;;;;;;3.00;3.00;;;;;18.28;61.53;101037.88;5055569;28;46221;-76
2022/07/27 02:00:40;;;;;;;;;2.75;2.75;;;;;18.29;61.63;101042.31;5055070;28;45358;-76
2022/07/27 02:03:09;;;;;;;;;3.75;3.75;;;;;18.27;61.90;101044.16;5056396;28;45553;-78
2022/07/27 02:05:38;;;;;;;;;3.00;3.00;;;;;18.21;61.90;101043.56;5057401;27;45634;-77
2022/07/27 02:08:05;;;;;;;;;3.50;2.50;;;;;18.16;62.46;101041.09;5075263;28;46031;-77
2022/07/27 02:10:31;;;;;;;;;4.25;3.25;;;;;18.13;62.41;101040.34;5067374;27;45339;-77
2022/07/27 02:12:57;;;;;;;;;5.50;4.25;;;;;18.09;62.72;101045.84;5055337;28;45437;-77
2022/07/27 02:15:25;;;;;;;;;3.75;3.50;;;;;18.04;62.60;101038.97;5055327;28;45379;-76
2022/07/27 02:17:51;;;;;;;;;4.75;3.50;;;;;18.01;62.89;101039.97;5056429;28;45461;-77
2022/07/27 02:20:19;;;;;;;;;3.50;3.00;;;;;17.98;63.26;101036.56;5060323;28;45435;-77
2022/07/27 02:22:45;;;;;;;;;4.50;3.75;;;;;17.97;63.05;101040.16;5057149;28;45314;-76
2022/07/27 02:25:12;;;;;;;;;3.00;3.00;;;;;17.90;63.41;101044.91;5053600;28;45485;-79
2022/07/27 02:27:38;;;;;;;;;3.00;3.00;;;;;17.87;63.70;101051.25;5055680;28;46497;-78
2022/07/27 02:30:04;;;;;;;;;3.50;3.50;;;;;17.83;63.43;101044.28;5055630;28;45443;-77
2022/07/27 02:32:30;;;;;;;;;3.00;3.00;;;;;17.83;63.76;101043.41;5054106;28;45471;-77
2022/07/27 02:34:56;;;;;;;;;2.00;2.00;;;;;17.79;64.02;101050.69;5054576;28;45574;-77
2022/07/27 02:37:21;;;;;;;;;0.00;0.00;;;;;17.65;63.74;101026.34;5067978;28;45987;-77
2022/07/27 02:39:47;;;;;;;;;4.25;3.00;;;;;17.72;63.92;101049.22;5056147;28;45445;-76
2022/07/27 02:42:12;;;;;;;;;4.00;3.00;;;;;17.70;64.01;101045.72;5060268;28;45458;-76
2022/07/27 02:44:39;;;;;;;;;4.00;4.00;;;;;17.65;64.40;101045.91;5074024;27;45415;-76
2022/07/27 02:47:05;;;;;;;;;8.00;4.00;;;;;17.63;64.22;101049.59;5064624;27;45352;-76
2022/07/27 02:49:30;;;;;;;;;2.75;2.00;;;;;17.58;64.02;101045.31;5075158;28;45264;-77
2022/07/27 02:51:56;;;;;;;;;3.75;3.75;;;;;17.55;64.43;101042.78;5072960;28;45408;-77
2022/07/27 02:54:23;;;;;;;;;2.00;2.00;;;;;17.59;64.31;101041.69;5074123;27;45310;-78
2022/07/27 02:56:51;;;;;;;;;2.00;2.00;;;;;17.58;64.13;101045.31;5058893;28;46280;-77
2022/07/27 02:59:19;;;;;;;;;5.00;3.00;;;;;17.51;64.44;101053.66;5074948;28;45481;-76
2022/07/27 03:01:46;;;;;;;;;6.00;4.00;;;;;17.41;63.99;101031.78;5076977;27;45534;-77
2022/07/27 03:04:12;;;;;;;;;3.00;3.00;;;;;17.48;64.11;101041.28;5074628;28;45598;-76
2022/07/27 03:06:37;;;;;;;;;3.00;2.00;;;;;17.40;64.25;101038.94;5058657;28;45458;-76
2022/07/27 03:09:03;;;;;;;;;4.00;3.00;;;;;17.40;64.42;101040.75;5074072;28;45538;-77
2022/07/27 03:11:29;;;;;;;;;4.25;3.50;;;;;17.26;64.31;101027.06;5074632;27;45559;-77
2022/07/27 03:13:54;;;;;;;;;4.00;4.00;;;;;17.28;64.67;101041.22;5074872;28;45413;-77
2022/07/27 03:16:21;;;;;;;;;5.50;3.25;;;;;17.14;64.67;101029.31;5067163;28;45571;-76
2022/07/27 03:18:47;;;;;;;;;3.25;3.25;;;;;17.07;64.73;101022.47;5054985;28;45518;-77
2022/07/27 03:21:14;;;;;;;;;4.50;3.00;;;;;17.14;64.92;101040.00;5053635;28;45349;-78
2022/07/27 03:23:40;;;;;;;;;5.00;4.00;;;;;17.15;64.92;101039.06;5054535;28;45367;-76
2022/07/27 03:26:05;;;;;;;;;4.75;3.00;;;;;17.07;65.03;101034.97;5058386;28;45383;-76
2022/07/27 03:28:30;;;;;;;;;3.75;2.75;;;;;17.10;64.97;101035.72;5057156;28;45550;-75
2022/07/27 03:30:56;;;;;;;;;3.75;3.75;;;;;17.08;64.74;101040.25;5056689;28;45612;-76
2022/07/27 03:33:21;;;;;;;;;3.00;3.00;;;;;16.78;65.00;100992.44;5058619;28;45498;-78
2022/07/27 03:35:47;;;;;;;;;4.00;4.00;;;;;17.04;65.05;101047.50;5058505;28;45482;-77
2022/07/27 03:38:12;;;;;;;;;3.00;3.00;;;;;17.02;65.11;101046.69;5057464;28;45469;-77
2022/07/27 03:40:39;;;;;;;;;2.00;2.00;;;;;16.97;64.88;101034.44;5056958;28;45432;-76
2022/07/27 03:43:04;;;;;;;;;8.00;6.00;;;;;17.00;65.06;101043.19;5057180;28;45511;-77
2022/07/27 03:45:29;;;;;;;;;4.25;4.25;;;;;16.92;65.28;101034.63;5057393;28;46024;-76
2022/07/27 03:47:55;;;;;;;;;2.25;2.25;;;;;16.96;65.05;101040.72;5069808;28;45434;-75
2022/07/27 03:50:21;;;;;;;;;3.50;3.50;;;;;16.96;65.08;101041.59;5076089;28;45567;-77
2022/07/27 03:52:48;;;;;;;;;0.50;0.50;;;;;16.95;64.92;101041.66;5077594;27;45651;-74
2022/07/27 03:55:14;;;;;;;;;5.50;4.00;;;;;16.95;64.54;101039.00;5069690;28;46597;-76
2022/07/27 03:57:39;;;;;;;;;4.00;4.00;;;;;16.86;64.85;101030.38;5059072;28;45568;-77
2022/07/27 04:00:07;;;;;;;;;3.75;3.50;;;;;16.88;64.57;101033.00;5058223;28;45454;-76
2022/07/27 04:02:32;;;;;;;;;4.00;4.00;;;;;16.88;64.49;101033.00;5057038;28;45344;-75
2022/07/27 04:04:58;;;;;;;;;3.75;2.25;;;;;16.86;64.39;101035.72;5057570;28;45362;-76
2022/07/27 04:07:23;;;;;;;;;6.00;4.00;;;;;16.87;64.29;101034.81;5058382;28;45615;-77
2022/07/27 04:09:48;;;;;;;;;2.25;2.25;;;;;16.88;64.08;101038.34;5057824;28;45537;-76
2022/07/27 04:12:14;;;;;;;;;2.75;2.75;;;;;16.79;63.96;101020.88;5058384;28;45472;-77
2022/07/27 04:14:39;;;;;;;;;5.25;3.00;;;;;16.87;64.03;101034.81;5057024;28;45504;-77
2022/07/27 04:17:04;;;;;;;;;3.50;3.00;;;;;16.86;63.92;101033.06;5060673;28;45576;-77
2022/07/27 04:19:30;;;;;;;;;4.00;3.00;;;;;16.80;64.23;101041.28;5056930;28;45390;-77
2022/07/27 04:21:56;;;;;;;;;3.25;2.75;;;;;16.76;64.15;101029.00;5056278;28;45529;-77
2022/07/27 04:24:21;;;;;;;;;2.00;1.50;;;;;16.72;64.23;101021.16;5055987;28;45489;-76
2022/07/27 04:26:47;;;;;;;;;2.00;2.00;;;;;16.81;63.92;101037.69;5058069;28;45520;-77
2022/07/27 04:29:12;;;;;;;;;4.00;2.00;;;;;16.79;64.08;101038.66;5059074;28;45434;-77
2022/07/27 04:31:37;;;;;;;;;3.00;3.00;;;;;16.77;63.49;101037.88;5076627;28;45472;-77
2022/07/27 04:34:03;;;;;;;;;3.00;3.00;;;;;16.74;63.65;101036.19;5079071;27;45433;-77
2022/07/27 04:36:28;;;;;;;;;2.75;2.75;;;;;16.67;63.37;101026.66;5068184;27;45353;-76
2022/07/27 04:38:53;;;;;;;;;3.50;3.50;;;;;16.81;63.51;101043.03;5060777;27;45414;-75
2022/07/27 04:41:19;;;;;;;;;4.00;3.00;;;;;16.96;62.61;101046.03;5077303;28;45603;-75
2022/07/27 04:43:44;;;;;;;;;2.00;1.75;;;;;17.22;61.90;101053.03;5058965;28;45307;-76
2022/07/27 04:46:12;;;;;;;;;3.00;2.75;;;;;17.48;60.81;101038.63;5062413;28;45394;-77
2022/07/27 04:48:37;;;;;;;;;3.00;2.25;;;;;17.86;59.99;101038.78;5076432;28;45278;-78
2022/07/27 04:51:03;;;;;;;;;1.75;1.75;;;;;18.20;59.08;101026.63;5076712;28;45322;-77
2022/07/27 04:53:28;;;;;;;;;4.00;2.00;;;;;18.64;57.94;101031.78;5076956;28;46453;-76
2022/07/27 04:55:54;;;;;;;;;5.00;3.75;;;;;19.00;56.75;101035.50;5067308;28;45494;-77
2022/07/27 04:58:19;;;;;;;;;0.00;0.00;;;;;19.22;55.69;101013.91;5077754;28;45609;-77
2022/07/27 05:00:44;;;;;;;;;3.00;3.00;;;;;19.58;54.88;101029.06;5077587;28;45456;-77
2022/07/27 05:03:10;;;;;;;;;6.00;3.00;;;;;19.83;53.78;101011.75;5076300;28;46040;-76
2022/07/27 05:05:35;;;;;;;;;2.00;2.00;;;;;20.22;52.70;101018.66;5069418;27;45545;-76
2022/07/27 05:08:01;;;;;;;;;2.50;2.25;;;;;20.64;51.60;101036.06;5076698;28;45444;-76
2022/07/27 05:10:28;;;;;;;;;3.75;3.75;;;;;20.83;50.47;101002.84;5078862;28;45456;-77
2022/07/27 05:12:54;;;;;;;;;3.00;3.00;;;;;21.35;49.71;101042.88;5077976;27;45473;-75
2022/07/27 05:15:20;;;;;;;;;4.00;2.00;;;;;21.73;48.42;101030.88;5068186;28;45451;-75
2022/07/27 05:17:45;;;;;;;;;3.00;3.00;;;;;22.05;48.06;101031.59;5055539;28;45382;-76
2022/07/27 05:20:13;;;;;;;;;3.50;2.00;;;;;22.32;46.92;101028.22;5063828;27;45426;-77
2022/07/27 05:22:38;;;;;;;;;2.00;2.00;;;;;22.67;45.88;101039.44;5075669;27;46125;-76
2022/07/27 05:25:04;;;;;;;;;2.50;2.50;;;;;23.01;45.32;101033.72;5075069;27;45389;-76
2022/07/27 05:27:30;;;;;;;;;2.75;2.00;;;;;23.49;44.72;101033.28;5075566;28;45629;-76
2022/07/27 05:29:56;;;;;;;;;2.75;2.75;;;;;23.76;43.53;101027.84;5075931;28;45388;-75
2022/07/27 05:32:22;;;;;;;;;3.25;3.25;;;;;24.08;42.42;101043.69;5074981;27;46352;-76
2022/07/27 05:34:47;;;;;;;;;3.00;3.00;;;;;24.24;42.40;101044.34;5055411;28;45604;-75
2022/07/27 05:37:13;;;;;;;;;4.50;3.75;;;;;24.59;41.66;101043.69;5071228;28;45376;-76
2022/07/27 05:39:41;;;;;;;;;2.50;2.50;;;;;24.98;40.80;101041.78;5055762;28;45493;-77
2022/07/27 05:42:07;;;;;;;;;4.00;4.00;;;;;25.40;39.53;101037.88;5055680;28;47219;-76
2022/07/27 05:44:33;;;;;;;;;3.50;3.50;;;;;25.79;39.31;101041.22;5055645;28;45317;-77
2022/07/27 05:46:58;;;;;;;;;2.00;2.00;;;;;26.11;38.57;101032.47;5054529;28;45504;-76
2022/07/27 05:49:24;;;;;;;;;2.00;2.00;;;;;26.31;37.70;101033.59;5055028;28;45522;-77
2022/07/27 05:51:49;;;;;;;;;3.00;3.00;;;;;26.54;36.90;101035.34;5054740;28;45468;-75
2022/07/27 05:54:15;;;;;;;;;3.00;3.00;;;;;26.80;36.66;101040.53;5054402;28;45493;-76
2022/07/27 05:56:40;;;;;;;;;3.75;3.00;;;;;27.10;36.03;101036.28;5065335;28;45511;-76
2022/07/27 05:59:06;;;;;;;;;7.25;3.25;;;;;27.39;35.58;101036.63;5058796;28;45466;-77
2022/07/27 06:01:32;;;;;;;;;2.75;2.75;;;;;27.73;35.65;101038.31;5055151;28;46316;-76
2022/07/27 06:03:57;;;;;;;;;3.75;3.00;;;;;28.05;34.63;101037.44;5054879;28;45464;-77
2022/07/27 06:09:06;;;;;;;;;4.25;3.00;;;;;28.50;34.23;101042.50;5056605;28;45581;-76
2022/07/27 06:11:32;;;;;;;;;4.00;2.75;;;;;28.73;32.86;101043.22;5070980;28;45931;-77
2022/07/27 06:13:57;;;;;;;;;2.25;2.25;;;;;28.76;33.41;101051.09;5075239;27;45402;-77
2022/07/27 06:16:22;;;;;;;;;5.00;3.50;;;;;28.89;32.59;101012.75;5073061;27;45449;-77
2022/07/27 06:18:48;;;;;;;;;2.50;2.50;;;;;29.21;32.54;101036.19;5074724;27;45498;-76
2022/07/27 06:21:13;;;;;;;;;3.00;2.00;;;;;29.27;31.90;101040.22;5076060;28;45436;-79
2022/07/27 06:23:39;;;;;;;;;2.75;2.75;;;;;28.98;31.96;101051.88;5074923;27;45414;-77
2022/07/27 06:26:04;;;;;;;;;2.75;2.75;;;;;29.04;32.20;101056.75;5074887;28;45491;-78
2022/07/27 06:28:30;;;;;;;;;6.75;3.50;;;;;29.05;32.69;101042.16;5069939;28;45374;-76
2022/07/27 06:30:55;;;;;;;;;3.00;3.00;;;;;28.82;31.87;101047.81;5059340;28;45405;-77
2022/07/27 06:33:26;;;;;;;;;3.50;3.50;;;;;29.19;32.10;101049.91;5054924;28;45420;-77
2022/07/27 06:35:53;;;;;;;;;3.00;3.00;;;;;29.54;31.59;101048.53;5056196;28;45448;-77
2022/07/27 06:38:19;;;;;;;;;3.75;3.75;;;;;29.66;30.61;101049.25;5060938;28;45850;-76
2022/07/27 06:40:46;;;;;;;;;3.25;2.00;;;;;29.78;31.09;101044.53;5063685;28;46118;-77
2022/07/27 06:43:11;;;;;;;;;3.50;3.50;;;;;30.06;30.46;101041.94;5067245;28;45403;-76
2022/07/27 06:45:37;;;;;;;;;3.25;3.25;;;;;30.56;30.23;101044.38;5053993;28;45282;-76
2022/07/27 06:48:02;;;;;;;;;3.75;2.75;;;;;30.82;29.33;101051.84;5054698;28;45414;-77
2022/07/27 06:50:27;;;;;;;;;3.75;2.75;;;;;30.58;29.73;101045.09;5055888;28;45432;-77
2022/07/27 06:52:53;;;;;;;;;2.75;2.75;;;;;30.59;29.36;101049.53;5068341;28;45449;-77
2022/07/27 06:55:18;;;;;;;;;4.25;2.00;;;;;30.76;29.03;101028.81;5070243;27;45434;-77
2022/07/27 06:57:45;;;;;;;;;2.25;2.25;;;;;30.81;28.96;101050.16;5062586;28;45591;-76
2022/07/27 07:00:11;;;;;;;;;2.25;2.25;;;;;30.82;29.55;101049.13;5063137;28;45448;-77
2022/07/27 07:02:37;;;;;;;;;5.00;4.00;;;;;30.99;29.34;101045.63;5074465;27;45453;-78
2022/07/27 07:05:03;;;;;;;;;4.75;4.50;;;;;31.24;29.58;101045.91;5065752;28;45568;-77
2022/07/27 07:07:30;;;;;;;;;4.75;2.25;;;;;31.55;28.77;101064.66;5076458;28;45508;-83
2022/07/27 07:09:55;;;;;;;;;4.50;4.50;;;;;31.72;28.31;101065.69;5078156;27;45446;-78
2022/07/27 07:12:21;;;;;;;;;2.00;2.00;;;;;31.76;28.54;101047.94;5062411;27;45392;-78
2022/07/27 07:14:46;;;;;;;;;3.25;2.00;;;;;32.04;27.63;101062.34;5058489;28;45353;-77
2022/07/27 07:17:12;;;;;;;;;3.25;3.25;;;;;32.35;28.29;101056.41;5064819;28;45557;-77
2022/07/27 07:19:37;;;;;;;;;5.00;3.75;;;;;32.71;27.45;101064.50;5068581;28;45516;-78
2022/07/27 07:22:02;;;;;;;;;3.25;2.25;;;;;32.62;27.22;101057.25;5069896;28;45417;-78
2022/07/27 07:24:29;;;;;;;;;4.50;3.25;;;;;32.57;27.19;101056.91;5074008;27;45670;-78
2022/07/27 07:26:54;;;;;;;;;4.00;4.00;;;;;32.58;27.18;101062.19;5065381;28;45613;-78
2022/07/27 07:29:20;;;;;;;;;2.00;2.00;;;;;32.72;27.14;101071.69;5061710;28;45470;-76
2022/07/27 07:31:45;;;;;;;;;3.75;3.75;;;;;32.75;27.42;101033.06;5060272;28;45513;-77
2022/07/27 07:34:11;;;;;;;;;3.50;3.50;;;;;33.14;27.13;101058.16;5067105;28;45595;-75
2022/07/27 07:36:36;;;;;;;;;6.00;4.00;;;;;32.91;26.98;101053.28;5062323;28;45588;-76
2022/07/27 07:39:02;;;;;;;;;7.25;6.25;;;;;32.93;26.96;101043.91;5064670;28;45838;-75
2022/07/27 07:41:28;;;;;;;;;4.75;4.75;;;;;33.21;26.89;101064.72;5074325;27;45541;-79
2022/07/27 07:43:53;;;;;;;;;4.75;4.75;;;;;33.29;27.05;101070.19;5068322;28;45460;-76
2022/07/27 07:46:18;;;;;;;;;5.75;5.25;;;;;33.54;26.09;101048.31;5066335;28;45504;-76
2022/07/27 07:48:44;;;;;;;;;5.25;5.00;;;;;33.57;25.91;101069.88;5068979;28;45484;-75
2022/07/27 07:51:12;;;;;;;;;4.25;4.25;;;;;33.44;26.42;101057.56;5066364;28;45521;-76
2022/07/27 07:53:37;;;;;;;;;4.25;4.00;;;;;33.53;26.40;101055.69;5067161;28;45313;-77
2022/07/27 07:56:03;;;;;;;;;5.50;5.50;;;;;33.41;26.94;101016.81;5064021;28;45457;-76
2022/07/27 07:58:30;;;;;;;;;3.00;3.00;;;;;33.95;26.41;101056.56;5062545;27;45733;-77
2022/07/27 08:00:55;;;;;;;;;5.75;5.00;;;;;33.69;25.95;101046.59;5068021;27;45588;-76
2022/07/27 08:03:21;;;;;;;;;5.75;5.75;;;;;33.01;26.33;100993.81;5065142;28;45494;-77
2022/07/27 08:05:46;;;;;;;;;5.25;3.00;;;;;33.61;26.40;101060.31;5063214;28;45632;-75
2022/07/27 08:08:12;;;;;;;;;7.00;6.00;;;;;33.58;26.43;101057.91;5072233;28;47732;-76
2022/07/27 08:10:37;;;;;;;;;4.00;4.00;;;;;33.52;26.37;101047.63;5065822;27;45331;-77
2022/07/27 08:13:03;;;;;;;;;3.00;3.00;;;;;33.57;27.44;101058.94;5070269;28;45466;-76
2022/07/27 08:15:29;;;;;;;;;6.25;5.25;;;;;33.74;26.27;101044.25;5060914;28;45548;-78
2022/07/27 08:17:55;;;;;;;;;5.25;5.25;;;;;33.47;26.30;101035.31;5069965;28;46161;-77
2022/07/27 08:20:22;;;;;;;;;5.50;5.50;;;;;33.57;26.49;101037.91;5064722;27;45631;-77
2022/07/27 08:22:47;;;;;;;;;5.25;5.25;;;;;33.85;26.78;101054.00;5053061;28;45577;-76
2022/07/27 08:25:13;;;;;;;;;6.75;5.00;;;;;33.53;26.13;101019.22;5063151;28;45469;-76
2022/07/27 08:27:39;;;;;;;;;6.00;6.00;;;;;33.36;26.14;101062.16;5073160;27;47124;-77
2022/07/27 08:30:05;;;;;;;;;5.00;5.00;;;;;32.99;26.95;101055.19;5059335;28;45685;-77
2022/07/27 08:32:31;;;;;;;;;7.75;7.25;;;;;33.23;26.17;101051.72;5065404;28;45562;-77
2022/07/27 08:34:57;;;;;;;;;5.00;5.00;;;;;33.43;26.20;101053.09;5070438;27;45580;-76
2022/07/27 08:37:22;;;;;;;;;6.50;6.00;;;;;33.73;26.14;101058.97;5058514;28;47161;-76
2022/07/27 08:39:48;;;;;;;;;6.75;6.75;;;;;33.98;26.04;101045.25;5066364;27;45446;-76
2022/07/27 08:42:16;;;;;;;;;11.00;6.00;;;;;34.04;26.35;101049.19;5061330;27;45535;-78
2022/07/27 08:44:41;;;;;;;;;8.00;7.00;;;;;33.93;26.32;101047.66;5057309;27;45537;-76
2022/07/27 08:47:09;;;;;;;;;6.25;5.00;;;;;34.09;25.17;101064.09;5063929;28;45958;-77
2022/07/27 08:49:38;;;;;;;;;7.50;5.75;;;;;33.82;25.51;100994.91;5055632;28;45398;-77
2022/07/27 08:52:04;;;;;;;;;5.50;4.50;;;;;34.09;25.80;101055.88;5064548;28;45464;-76
2022/07/27 08:54:30;;;;;;;;;5.00;5.00;;;;;33.98;26.46;101042.50;5066244;28;45438;-76
2022/07/27 08:56:55;;;;;;;;;6.50;6.00;;;;;34.11;25.58;101029.13;5058160;28;45497;-76
2022/07/27 08:59:21;;;;;;;;;6.75;6.50;;;;;34.24;25.97;101046.91;5056605;28;45404;-76
2022/07/27 09:01:46;;;;;;;;;5.00;5.00;;;;;34.70;24.80;101045.25;5061849;28;45545;-77
2022/07/27 09:04:11;;;;;;;;;4.75;4.75;;;;;34.75;24.98;101044.72;5069594;27;45340;-76
2022/07/27 09:06:44;;;;;;;;;6.00;5.00;;;;;34.71;24.38;101057.06;5063944;28;46090;-77
2022/07/27 09:09:11;;;;;;;;;6.25;5.25;;;;;35.07;24.82;101051.09;5065650;28;45480;-76
2022/07/27 09:11:37;;;;;;;;;5.25;5.25;;;;;34.69;24.06;101059.16;5070276;27;45456;-76
2022/07/27 09:14:09;;;;;;;;;5.00;5.00;;;;;34.66;25.07;101065.00;5065836;28;45469;-78
2022/07/27 09:16:35;;;;;;;;;6.50;6.00;;;;;34.39;24.75;101053.41;5061280;28;45606;-77
2022/07/27 09:19:05;;;;;;;;;3.25;3.25;;;;;34.44;25.01;101042.78;5054918;28;45473;-76
2022/07/27 09:21:32;;;;;;;;;3.75;3.75;;;;;34.10;24.15;101054.84;5055432;28;45712;-76
2022/07/27 09:24:12;;;;;;;;;3.25;3.25;;;;;33.96;24.58;101044.56;5058276;28;45458;-77
2022/07/27 09:26:39;;;;;;;;;3.50;3.50;;;;;34.01;25.58;101042.16;5070127;28;46216;-77
2022/07/27 09:29:07;;;;;;;;;5.50;4.25;;;;;33.83;25.04;101042.38;5066072;28;45575;-76
2022/07/27 09:31:43;;;;;;;;;5.00;5.00;;;;;33.41;26.27;101052.41;5065615;28;45611;-75
2022/07/27 09:34:10;;;;;;;;;5.75;4.00;;;;;33.69;25.33;101054.81;5063825;28;45481;-76
2022/07/27 09:36:50;;;;;;;;;5.25;5.25;;;;;33.49;24.94;101051.56;5069746;28;45434;-76
2022/07/27 09:39:18;;;;;;;;;5.00;5.00;;;;;32.48;26.23;101049.63;5063929;28;45784;-77
2022/07/27 09:41:49;;;;;;;;;4.25;3.00;;;;;32.72;26.85;101049.81;5064325;27;45488;-76
2022/07/27 09:44:17;;;;;;;;;4.50;4.50;;;;;33.24;26.10;101047.94;5060533;28;45482;-77
2022/07/27 09:46:45;;;;;;;;;6.00;5.00;;;;;33.42;25.71;101029.50;5068968;28;47434;-77
2022/07/27 09:49:30;;;;;;;;;6.00;3.75;;;;;33.93;25.21;101045.78;5057801;28;45366;-77
2022/07/27 09:51:56;;;;;;;;;4.25;4.25;;;;;33.91;25.13;101057.97;5056515;28;45354;-79
2022/07/27 09:54:24;;;;;;;;;1.75;1.75;;;;;32.52;25.61;100936.19;5065333;28;45341;-80
2022/07/27 09:56:59;;;;;;;;;2.00;2.00;;;;;33.34;25.11;101036.84;5071004;27;46016;-77
2022/07/27 09:59:24;;;;;;;;;1.50;1.50;;;;;33.50;25.49;101041.50;5072419;27;45549;-78
2022/07/27 10:01:50;;;;;;;;;4.00;4.00;;;;;33.57;24.28;101029.69;5060685;28;45494;-76
2022/07/27 10:04:16;;;;;;;;;4.25;3.00;;;;;33.68;24.62;101041.28;5059551;28;45469;-78
2022/07/27 10:06:42;;;;;;;;;3.75;3.00;;;;;33.78;24.94;101033.78;5063776;27;46346;-78
2022/07/27 10:09:08;;;;;;;;;3.50;3.50;;;;;34.62;24.02;101036.19;5056731;28;45464;-77
2022/07/27 10:11:34;;;;;;;;;4.75;3.00;;;;;34.34;24.00;101033.91;5055875;28;45460;-76
2022/07/27 10:13:59;;;;;;;;;3.50;3.50;;;;;34.14;23.62;101038.91;5064526;28;45560;-78
2022/07/27 10:16:30;;;;;;;;;3.00;3.00;;;;;33.42;24.97;101034.97;5062306;28;46090;-78
2022/07/27 10:19:04;;;;;;;;;3.25;2.00;;;;;33.47;25.81;101038.03;5056871;28;45438;-78
2022/07/27 10:21:34;;;;;;;;;3.00;3.00;;;;;33.71;24.82;101011.69;5065426;28;45534;-78
2022/07/27 10:24:02;;;;;;;;;3.25;2.25;;;;;33.86;24.50;101019.22;5062530;28;45528;-77
2022/07/27 10:26:32;;;;;;;;;3.25;3.25;;;;;33.81;23.94;101023.38;5066377;28;45458;-77
2022/07/27 10:29:13;;;;;;;;;2.50;1.50;;;;;33.11;24.42;101032.81;5064859;28;45663;-76
2022/07/27 10:31:41;;;;;;;;;2.00;2.00;;;;;32.27;24.67;101017.25;5063683;27;45445;-78
2022/07/27 10:34:09;;;;;;;;;4.00;2.00;;;;;31.58;24.81;101012.44;5063409;28;45542;-78
2022/07/27 10:36:34;;;;;;;;;1.00;1.00;;;;;31.58;25.42;101039.75;5057937;28;46841;-77
2022/07/27 10:39:03;;;;;;;;;3.25;2.25;;;;;32.19;24.85;101020.78;5054995;28;45404;-77
2022/07/27 10:41:40;;;;;;;;;4.00;4.00;;;;;32.91;24.77;101020.47;5064433;28;45693;-77
2022/07/27 10:44:17;;;;;;;;;3.75;2.00;;;;;33.49;25.21;101017.84;5056850;28;45652;-77
2022/07/27 10:47:02;;;;;;;;;2.50;2.50;;;;;33.91;23.40;101016.84;5066869;28;45489;-76
2022/07/27 10:49:36;;;;;;;;;2.25;2.00;;;;;34.05;23.86;101018.00;5059347;28;45517;-76
2022/07/27 10:52:03;;;;;;;;;3.50;3.50;;;;;34.06;24.57;101008.75;5064367;27;45441;-76
2022/07/27 10:54:35;;;;;;;;;3.50;2.75;;;;;34.24;23.14;101012.16;5056881;28;45436;-77
2022/07/27 10:57:04;;;;;;;;;4.00;3.00;;;;;34.05;23.37;101013.38;5055244;28;46240;-75
2022/07/27 10:59:38;;;;;;;;;4.00;4.00;;;;;34.20;23.60;101008.03;5061925;28;45604;-75
2022/07/27 11:02:06;;;;;;;;;2.50;2.50;;;;;34.00;23.81;101008.41;5067726;28;45516;-77
2022/07/27 11:04:46;;;;;;;;;2.50;2.50;;;;;33.99;23.66;101014.06;5071838;27;45590;-75
2022/07/27 11:07:18;;;;;;;;;2.00;2.00;;;;;33.97;23.38;100999.69;5070226;28;45552;-75
2022/07/27 11:09:45;;;;;;;;;2.00;2.00;;;;;34.32;24.11;101003.06;5077081;27;45449;-77
2022/07/27 11:12:12;;;;;;;;;2.75;2.75;;;;;34.15;22.40;100978.41;5059996;28;45542;-75
2022/07/27 11:14:47;;;;;;;;;1.00;1.00;;;;;34.27;22.08;100989.00;5059678;28;45400;-77
2022/07/27 11:17:14;;;;;;;;;2.00;2.00;;;;;34.56;22.39;100987.53;5062017;28;46183;-77
2022/07/27 11:19:39;;;;;;;;;2.00;2.00;;;;;34.68;22.24;100992.47;5065920;28;45480;-77
2022/07/27 11:22:04;;;;;;;;;4.00;4.00;;;;;34.43;22.73;100990.84;5061590;28;45487;-76
2022/07/27 11:24:32;;;;;;;;;3.00;3.00;;;;;33.77;22.87;100983.63;5058316;28;45530;-76
2022/07/27 11:26:58;;;;;;;;;2.50;2.50;;;;;32.88;24.07;100985.22;5072217;27;45469;-77